Time;durP1;ratioP1;P1;durP2;ratioP2;P2;SDS_P1;SDS_P2;PMS_P1;PMS_P2;Temp;Humidity;BMP_temperature;BMP_pressure;BME280_temperature;BME280_humidity;BME280_pressure;Samples;Min_cycle;Max_cycle;Signal;HPM_P1;HPM_P2
2024/02/29 00:00:11;;;;;;;0.60;0.60;;;5.40;99.90;;;;;;5033312;28;20216;-78
2024/02/29 00:02:39;;;;;;;4.72;2.97;;;5.40;99.90;;;;;;5032696;28;20295;-77
2024/02/29 00:05:09;;;;;;;4.10;2.85;;;5.40;99.90;;;;;;5032324;28;20206;-78
2024/02/29 00:07:37;;;;;;;4.32;4.00;;;5.40;99.90;;;;;;5031742;28;20226;-78
2024/02/29 00:10:04;;;;;;;0.50;0.50;;;5.40;99.90;;;;;;5032512;28;20188;-78
2024/02/29 00:12:31;;;;;;;2.05;1.10;;;5.40;99.90;;;;;;5032495;28;20199;-77
2024/02/29 00:14:58;;;;;;;1.58;1.50;;;5.30;99.90;;;;;;5037468;28;20612;-79
2024/02/29 00:17:25;;;;;;;0.98;0.98;;;5.40;99.90;;;;;;5038571;28;20216;-80
2024/02/29 00:19:52;;;;;;;0.50;0.47;;;5.40;99.90;;;;;;5037794;28;20219;-80
2024/02/29 00:22:19;;;;;;;2.28;1.83;;;5.30;99.90;;;;;;5038070;28;20568;-79
2024/02/29 00:24:47;;;;;;;0.77;0.77;;;5.30;99.90;;;;;;5038265;28;20290;-79
2024/02/29 00:27:14;;;;;;;0.70;0.70;;;5.20;99.90;;;;;;5038385;28;20212;-78
2024/02/29 00:29:43;;;;;;;0.75;0.75;;;5.20;99.90;;;;;;5037877;28;20196;-79
2024/02/29 00:32:11;;;;;;;0.63;0.63;;;5.20;99.90;;;;;;5038055;28;20192;-80
2024/02/29 00:34:38;;;;;;;1.92;1.83;;;5.20;99.90;;;;;;5038066;28;20195;-78
2024/02/29 00:37:05;;;;;;;0.80;0.80;;;5.30;99.90;;;;;;5036784;28;20223;-79
2024/02/29 00:39:31;;;;;;;0.73;0.73;;;5.20;99.90;;;;;;5036544;28;20351;-79
2024/02/29 00:41:59;;;;;;;3.05;1.95;;;5.20;99.90;;;;;;5036767;28;20195;-78
2024/02/29 00:44:26;;;;;;;1.02;1.02;;;5.20;99.90;;;;;;5036303;28;20199;-78
2024/02/29 00:46:53;;;;;;;2.05;1.88;;;5.10;99.90;;;;;;5036629;28;20195;-77
2024/02/29 00:49:20;;;;;;;0.60;0.60;;;5.10;99.90;;;;;;5036116;28;20196;-78
2024/02/29 00:51:47;;;;;;;1.13;0.88;;;5.10;99.90;;;;;;5035747;28;20218;-78
2024/02/29 00:54:14;;;;;;;1.30;1.20;;;5.10;99.90;;;;;;5035889;28;20663;-77
2024/02/29 00:56:41;;;;;;;0.50;0.50;;;5.10;99.90;;;;;;5035007;28;20707;-78
2024/02/29 00:59:10;;;;;;;0.50;0.40;;;5.10;99.90;;;;;;5036501;28;20199;-77
2024/02/29 01:01:37;;;;;;;2.55;2.45;;;5.10;99.90;;;;;;5036172;28;20695;-80
2024/02/29 01:04:05;;;;;;;3.60;1.15;;;5.00;99.90;;;;;;5035838;28;20199;-78
2024/02/29 01:06:31;;;;;;;1.35;1.00;;;5.10;99.90;;;;;;5035407;28;20204;-79
2024/02/29 01:08:58;;;;;;;1.37;1.33;;;5.10;99.90;;;;;;5035985;28;20219;-78
2024/02/29 01:11:24;;;;;;;2.90;2.10;;;5.00;99.90;;;;;;5035129;28;20860;-78
2024/02/29 01:13:52;;;;;;;2.05;1.40;;;5.10;99.90;;;;;;5035240;28;20192;-78
2024/02/29 01:16:20;;;;;;;2.58;1.85;;;5.00;99.90;;;;;;5035652;28;20291;-78
2024/02/29 01:18:47;;;;;;;1.77;1.05;;;5.00;99.90;;;;;;5038081;28;20216;-79
2024/02/29 01:21:14;;;;;;;2.45;2.33;;;5.10;99.90;;;;;;5038773;28;20215;-77
2024/02/29 01:23:41;;;;;;;2.83;1.60;;;5.10;99.90;;;;;;5039906;28;20203;-78
2024/02/29 01:26:08;;;;;;;0.50;0.50;;;5.20;99.90;;;;;;5039043;28;20575;-78
2024/02/29 01:28:35;;;;;;;2.28;1.55;;;5.10;99.90;;;;;;5038915;28;20216;-77
2024/02/29 01:31:03;;;;;;;3.67;3.25;;;5.20;99.90;;;;;;5039243;28;20200;-79
2024/02/29 01:33:32;;;;;;;2.78;2.58;;;5.20;99.90;;;;;;5037998;28;20283;-79
2024/02/29 01:36:00;;;;;;;0.50;0.40;;;5.20;99.90;;;;;;5038368;28;20203;-79
2024/02/29 01:38:27;;;;;;;1.58;1.48;;;5.20;99.90;;;;;;5038633;28;20223;-77
2024/02/29 01:40:53;;;;;;;6.43;4.22;;;5.10;99.90;;;;;;5038597;28;20700;-78
2024/02/29 01:43:21;;;;;;;2.63;1.45;;;5.10;99.90;;;;;;5037956;28;20575;-79
2024/02/29 01:45:54;;;;;;;3.55;1.42;;;5.10;99.90;;;;;;5038313;28;20207;-78
2024/02/29 01:48:23;;;;;;;8.63;3.55;;;5.10;99.90;;;;;;5038325;28;20723;-77
2024/02/29 01:50:51;;;;;;;1.05;1.00;;;5.10;99.90;;;;;;5038169;28;20192;-78
2024/02/29 01:53:18;;;;;;;4.82;3.47;;;5.10;99.90;;;;;;5037980;28;20580;-78
2024/02/29 01:55:44;;;;;;;4.20;3.80;;;5.10;99.90;;;;;;5038815;28;20199;-78
2024/02/29 01:58:11;;;;;;;5.65;5.45;;;5.00;99.90;;;;;;5038386;28;20596;-78
2024/02/29 02:00:38;;;;;;;1.25;1.25;;;5.00;99.90;;;;;;5038474;28;20215;-78
2024/02/29 02:03:07;;;;;;;0.50;0.50;;;5.00;99.90;;;;;;5037852;28;20660;-78
2024/02/29 02:05:34;;;;;;;9.23;2.65;;;5.00;99.90;;;;;;5037803;28;20591;-78
2024/02/29 02:08:03;;;;;;;3.42;1.67;;;4.90;99.90;;;;;;5037267;28;20216;-78
2024/02/29 02:10:30;;;;;;;1.50;1.02;;;4.90;99.90;;;;;;5037803;28;20627;-78
2024/02/29 02:12:57;;;;;;;1.30;1.20;;;4.90;99.90;;;;;;5037297;28;20192;-79
2024/02/29 02:15:24;;;;;;;4.00;3.55;;;4.90;99.90;;;;;;5037471;28;20203;-79
2024/02/29 02:17:51;;;;;;;0.70;0.70;;;4.90;99.90;;;;;;5037611;28;20223;-79
2024/02/29 02:20:19;;;;;;;5.75;3.97;;;5.00;99.90;;;;;;5037425;28;20596;-78
2024/02/29 02:22:46;;;;;;;0.80;0.70;;;5.00;99.90;;;;;;5036894;28;20204;-78
2024/02/29 02:25:13;;;;;;;4.78;3.10;;;4.90;99.90;;;;;;5037418;28;20204;-77
2024/02/29 02:27:40;;;;;;;0.93;0.93;;;4.90;99.90;;;;;;5037209;28;20226;-77
2024/02/29 02:30:08;;;;;;;6.47;3.50;;;4.90;99.90;;;;;;5036789;28;20608;-77
2024/02/29 02:32:35;;;;;;;7.22;3.90;;;5.00;99.90;;;;;;5036949;28;20203;-79
2024/02/29 02:35:04;;;;;;;2.25;2.13;;;5.00;99.90;;;;;;5036726;28;20231;-77
2024/02/29 02:37:36;;;;;;;1.33;1.30;;;5.00;99.90;;;;;;5036927;28;20211;-77
2024/02/29 02:40:04;;;;;;;2.58;1.45;;;4.90;99.90;;;;;;5036487;28;20235;-78
2024/02/29 02:42:31;;;;;;;2.45;1.50;;;4.90;99.90;;;;;;5036595;28;20199;-77
2024/02/29 02:44:58;;;;;;;0.70;0.70;;;4.90;99.90;;;;;;5036160;28;20196;-78
2024/02/29 02:47:26;;;;;;;1.98;1.77;;;4.90;99.90;;;;;;5036570;28;20616;-79
2024/02/29 02:49:52;;;;;;;0.85;0.85;;;4.90;99.90;;;;;;5036094;28;20203;-79
2024/02/29 02:52:19;;;;;;;5.75;2.03;;;4.90;99.90;;;;;;5035634;28;20200;-79
2024/02/29 02:54:48;;;;;;;1.15;1.15;;;4.90;99.90;;;;;;5035220;28;20614;-78
2024/02/29 02:57:15;;;;;;;1.70;1.60;;;4.90;99.90;;;;;;5035408;28;20224;-79
2024/02/29 02:59:41;;;;;;;3.25;3.05;;;4.90;99.90;;;;;;5043213;28;20690;-79
2024/02/29 03:02:08;;;;;;;3.63;2.88;;;5.00;99.90;;;;;;5054985;28;20222;-78
2024/02/29 03:04:35;;;;;;;0.85;0.85;;;5.00;99.90;;;;;;5054832;28;20199;-78
2024/02/29 03:07:02;;;;;;;3.50;2.00;;;5.00;99.90;;;;;;5054320;28;20223;-79
2024/02/29 03:09:28;;;;;;;5.97;3.42;;;5.00;99.90;;;;;;5054722;28;20207;-79
2024/02/29 03:11:56;;;;;;;1.58;1.48;;;5.00;99.90;;;;;;5054281;28;20191;-80
2024/02/29 03:14:23;;;;;;;4.78;3.70;;;5.00;99.90;;;;;;5053779;28;20202;-79
2024/02/29 03:16:50;;;;;;;1.55;1.45;;;5.00;99.90;;;;;;5053313;28;20199;-79
2024/02/29 03:19:16;;;;;;;1.80;1.27;;;5.00;99.90;;;;;;5053184;28;20690;-79
2024/02/29 03:21:45;;;;;;;3.15;2.58;;;4.90;99.90;;;;;;5053236;28;20633;-80
2024/02/29 03:24:11;;;;;;;3.75;2.05;;;4.90;99.90;;;;;;5052818;28;20199;-79
2024/02/29 03:26:38;;;;;;;13.73;3.00;;;5.00;99.90;;;;;;5055033;28;20191;-79
2024/02/29 03:29:08;;;;;;;2.85;1.35;;;5.00;99.90;;;;;;5056312;28;20195;-78
2024/02/29 03:31:35;;;;;;;0.50;0.50;;;4.90;99.90;;;;;;5056615;28;20218;-78
2024/02/29 03:34:02;;;;;;;0.98;0.98;;;4.90;99.90;;;;;;5056746;28;20202;-79
2024/02/29 03:36:29;;;;;;;1.02;0.93;;;4.90;99.90;;;;;;5055787;28;20249;-78
2024/02/29 03:38:57;;;;;;;1.77;1.15;;;4.90;99.90;;;;;;5055814;28;20824;-79
2024/02/29 03:41:24;;;;;;;1.38;1.30;;;4.90;99.90;;;;;;5054659;28;20262;-81
2024/02/29 03:43:51;;;;;;;2.85;1.00;;;4.90;99.90;;;;;;5055874;28;20202;-78
2024/02/29 03:46:19;;;;;;;1.60;1.15;;;4.90;99.90;;;;;;5055569;28;20201;-78
2024/02/29 03:48:47;;;;;;;2.50;2.30;;;4.80;99.90;;;;;;5056196;28;20214;-78
2024/02/29 03:51:16;;;;;;;0.50;0.45;;;4.80;99.90;;;;;;5057702;28;20240;-79
2024/02/29 03:53:43;;;;;;;1.25;1.15;;;4.80;99.90;;;;;;5057883;28;20687;-80
2024/02/29 03:56:10;;;;;;;2.00;1.85;;;4.80;99.90;;;;;;5056714;28;20190;-79
2024/02/29 03:58:37;;;;;;;0.70;0.70;;;4.80;99.90;;;;;;5058750;28;20671;-80
2024/02/29 04:01:05;;;;;;;0.80;0.80;;;4.80;99.90;;;;;;5057180;28;20211;-79
2024/02/29 04:03:33;;;;;;;0.93;0.93;;;4.70;99.90;;;;;;5057536;28;20202;-80
2024/02/29 04:06:01;;;;;;;0.50;0.50;;;4.70;99.90;;;;;;5057755;28;20202;-81
2024/02/29 04:08:29;;;;;;;2.17;2.08;;;4.70;99.90;;;;;;5056999;28;20222;-80
2024/02/29 04:10:55;;;;;;;1.83;1.48;;;4.60;99.90;;;;;;5056922;28;20207;-80
2024/02/29 04:13:23;;;;;;;0.82;0.82;;;4.70;99.90;;;;;;5056838;28;20292;-79
2024/02/29 04:15:50;;;;;;;5.57;3.53;;;4.60;99.90;;;;;;5056546;28;20793;-80
2024/02/29 04:18:18;;;;;;;1.63;1.40;;;4.60;99.90;;;;;;5056676;28;20587;-80
2024/02/29 04:20:47;;;;;;;0.50;0.40;;;4.60;99.90;;;;;;5055745;28;20222;-79
2024/02/29 04:23:14;;;;;;;0.50;0.40;;;4.60;99.90;;;;;;5053388;28;20199;-78
2024/02/29 04:25:41;;;;;;;2.72;2.38;;;4.60;99.90;;;;;;5054272;28;20197;-78
2024/02/29 04:28:08;;;;;;;1.45;0.63;;;4.60;99.90;;;;;;5053399;28;20217;-78
2024/02/29 04:30:34;;;;;;;1.15;1.15;;;4.60;99.90;;;;;;5053409;28;20195;-78
2024/02/29 04:33:05;;;;;;;4.90;1.75;;;4.60;99.90;;;;;;5052984;28;20667;-79
2024/02/29 04:35:33;;;;;;;4.32;3.97;;;4.60;99.90;;;;;;5053193;28;20198;-79
2024/02/29 04:38:01;;;;;;;1.88;1.08;;;4.60;99.90;;;;;;5053180;28;20227;-78
2024/02/29 04:40:29;;;;;;;1.23;0.98;;;4.60;99.90;;;;;;5052486;28;20203;-79
2024/02/29 04:42:56;;;;;;;2.45;1.05;;;4.60;99.90;;;;;;5051869;28;20202;-78
2024/02/29 04:45:23;;;;;;;4.70;2.75;;;4.60;99.90;;;;;;5052147;28;20195;-79
2024/02/29 04:47:50;;;;;;;1.23;0.95;;;4.60;99.90;;;;;;5051712;28;20219;-79
2024/02/29 04:50:18;;;;;;;1.10;1.00;;;4.60;99.90;;;;;;5052013;28;20195;-78
2024/02/29 04:52:45;;;;;;;0.93;0.90;;;4.60;99.90;;;;;;5056313;28;20622;-80
2024/02/29 04:55:16;;;;;;;3.85;3.20;;;4.60;99.90;;;;;;5063234;28;20191;-80
2024/02/29 04:57:42;;;;;;;4.03;3.72;;;4.60;99.90;;;;;;5062232;28;20214;-81
2024/02/29 05:00:10;;;;;;;6.65;4.10;;;4.60;99.90;;;;;;5062369;28;20198;-81
2024/02/29 05:02:38;;;;;;;2.63;0.98;;;4.60;99.90;;;;;;5062459;28;20218;-79
2024/02/29 05:05:06;;;;;;;0.50;0.50;;;4.60;99.90;;;;;;5062923;28;20266;-80
2024/02/29 05:07:34;;;;;;;0.50;0.40;;;4.50;99.90;;;;;;5062055;28;20219;-80
2024/02/29 05:10:01;;;;;;;6.57;2.20;;;4.60;99.90;;;;;;5062524;28;20234;-80
2024/02/29 05:12:30;;;;;;;3.88;3.05;;;4.60;99.90;;;;;;5062169;28;20202;-80
2024/02/29 05:14:58;;;;;;;4.88;1.85;;;4.60;99.90;;;;;;5061246;28;20203;-81
2024/02/29 05:17:25;;;;;;;2.50;1.33;;;4.60;99.90;;;;;;5061646;28;20222;-81
2024/02/29 05:19:54;;;;;;;6.78;4.47;;;4.70;99.90;;;;;;5061945;28;20214;-81
2024/02/29 05:22:22;;;;;;;0.60;0.60;;;4.70;99.90;;;;;;5061554;28;20214;-80
2024/02/29 05:24:49;;;;;;;2.35;2.15;;;4.70;99.90;;;;;;5061336;28;20199;-81
2024/02/29 05:27:16;;;;;;;4.20;2.63;;;4.60;99.90;;;;;;5061892;28;20753;-80
2024/02/29 05:29:44;;;;;;;7.30;2.47;;;4.70;99.90;;;;;;5062448;28;20226;-79
2024/02/29 05:32:11;;;;;;;1.83;1.70;;;4.70;99.90;;;;;;5062239;28;20191;-80
2024/02/29 05:34:39;;;;;;;15.98;2.25;;;4.70;99.90;;;;;;5061960;28;20192;-81
2024/02/29 05:37:07;;;;;;;1.33;1.23;;;4.70;99.90;;;;;;5061690;28;20223;-80
2024/02/29 05:39:35;;;;;;;1.67;1.58;;;4.70;99.90;;;;;;5061933;28;20207;-80
2024/02/29 05:42:03;;;;;;;0.90;0.80;;;4.70;99.90;;;;;;5062495;28;20219;-80
2024/02/29 05:44:30;;;;;;;1.90;1.25;;;4.70;99.90;;;;;;5061500;28;20206;-80
2024/02/29 05:46:58;;;;;;;0.95;0.95;;;4.70;99.90;;;;;;5061846;28;20225;-81
2024/02/29 05:49:25;;;;;;;0.80;0.80;;;4.70;99.90;;;;;;5061839;28;20206;-80
2024/02/29 05:51:53;;;;;;;3.40;2.00;;;4.70;99.90;;;;;;5061528;28;20191;-78
2024/02/29 05:54:20;;;;;;;2.58;2.38;;;4.80;99.90;;;;;;5062141;28;20194;-81
2024/02/29 05:56:47;;;;;;;3.20;2.75;;;4.70;99.90;;;;;;5061372;28;20207;-79
2024/02/29 05:59:15;;;;;;;1.60;1.50;;;4.70;99.90;;;;;;5061380;28;20190;-79
2024/02/29 06:01:42;;;;;;;6.75;2.97;;;4.70;99.90;;;;;;5060873;28;20250;-80
2024/02/29 06:04:10;;;;;;;1.40;1.35;;;4.70;99.90;;;;;;5060739;28;20191;-81
2024/02/29 06:06:37;;;;;;;5.20;2.35;;;4.70;99.90;;;;;;5061709;28;20195;-79
2024/02/29 06:09:04;;;;;;;5.53;3.65;;;4.70;99.90;;;;;;5062342;28;20215;-80
2024/02/29 06:11:31;;;;;;;3.10;2.70;;;4.80;99.90;;;;;;5063482;28;20191;-81
2024/02/29 06:13:57;;;;;;;3.45;2.35;;;4.70;99.90;;;;;;5063810;28;20191;-80
2024/02/29 06:16:24;;;;;;;3.35;2.90;;;4.80;99.90;;;;;;5061889;28;20605;-79
2024/02/29 06:18:51;;;;;;;0.50;0.50;;;4.80;99.90;;;;;;5062468;28;20219;-80
2024/02/29 06:21:19;;;;;;;2.90;1.65;;;4.90;99.90;;;;;;5062243;28;20215;-79
2024/02/29 06:23:45;;;;;;;3.92;1.48;;;4.80;99.90;;;;;;5062134;28;20199;-80
2024/02/29 06:26:12;;;;;;;1.00;1.00;;;4.90;99.90;;;;;;5062027;28;20199;-80
2024/02/29 06:28:39;;;;;;;6.22;2.38;;;4.90;99.90;;;;;;5061199;28;20238;-80
2024/02/29 06:31:08;;;;;;;1.55;1.35;;;4.90;99.90;;;;;;5062574;28;20286;-79
2024/02/29 06:33:35;;;;;;;4.22;2.33;;;4.90;99.90;;;;;;5063821;28;20201;-80
2024/02/29 06:36:05;;;;;;;1.83;1.27;;;4.90;99.90;;;;;;5062702;28;20636;-79
2024/02/29 06:38:33;;;;;;;0.55;0.55;;;4.90;99.90;;;;;;5062686;28;20215;-80
2024/02/29 06:41:00;;;;;;;0.90;0.90;;;4.90;99.90;;;;;;5062214;28;20195;-79
2024/02/29 06:43:28;;;;;;;0.60;0.50;;;5.00;99.90;;;;;;5062371;28;20210;-80
2024/02/29 06:45:55;;;;;;;2.78;2.58;;;5.00;99.90;;;;;;5062002;28;20203;-80
2024/02/29 06:48:23;;;;;;;1.40;1.30;;;5.10;99.90;;;;;;5062467;28;20226;-80
2024/02/29 06:50:49;;;;;;;11.13;2.75;;;5.10;99.90;;;;;;5062172;28;20195;-79
2024/02/29 06:53:18;;;;;;;6.60;2.22;;;5.20;99.90;;;;;;5062797;28;20210;-80
2024/02/29 06:55:46;;;;;;;2.03;1.80;;;5.20;99.90;;;;;;5061993;28;20748;-80
2024/02/29 06:58:13;;;;;;;1.73;1.35;;;5.20;99.90;;;;;;5061432;28;20211;-80
2024/02/29 07:00:40;;;;;;;1.83;1.73;;;5.30;99.90;;;;;;5061136;28;20599;-80
2024/02/29 07:03:07;;;;;;;3.60;3.30;;;5.40;99.90;;;;;;5061915;28;20226;-80
2024/02/29 07:05:35;;;;;;;2.08;1.90;;;5.40;99.90;;;;;;5063116;28;20195;-79
2024/02/29 07:08:10;;;;;;;1.05;0.90;;;5.50;99.90;;;;;;5063105;28;20261;-81
2024/02/29 07:10:38;;;;;;;8.88;4.28;;;5.50;99.90;;;;;;5062387;28;20225;-80
2024/02/29 07:13:06;;;;;;;0.60;0.60;;;5.60;99.90;;;;;;5060905;28;20203;-81
2024/02/29 07:15:33;;;;;;;3.08;2.78;;;5.70;99.90;;;;;;5061649;28;20196;-81
2024/02/29 07:18:03;;;;;;;1.55;1.35;;;5.70;99.90;;;;;;5061671;28;20242;-81
2024/02/29 07:20:30;;;;;;;1.85;1.15;;;5.70;99.90;;;;;;5061747;28;20195;-80
2024/02/29 07:22:57;;;;;;;3.33;2.00;;;5.80;99.90;;;;;;5061439;28;20226;-81
2024/02/29 07:25:24;;;;;;;2.45;1.40;;;6.00;99.90;;;;;;5061590;28;20202;-80
2024/02/29 07:27:52;;;;;;;2.90;2.05;;;6.00;99.90;;;;;;5061507;28;20218;-79
2024/02/29 07:30:22;;;;;;;3.55;2.25;;;6.20;99.90;;;;;;5062630;28;20196;-80
2024/02/29 07:32:49;;;;;;;4.30;2.10;;;6.20;99.90;;;;;;5061609;28;20190;-80
2024/02/29 07:35:17;;;;;;;9.00;5.10;;;6.20;99.90;;;;;;5064995;28;20202;-80
2024/02/29 07:37:44;;;;;;;4.10;3.70;;;6.20;99.90;;;;;;5063498;28;20218;-79
2024/02/29 07:40:12;;;;;;;5.18;2.50;;;6.30;99.90;;;;;;5062403;28;20262;-81
2024/02/29 07:42:40;;;;;;;0.98;0.98;;;6.40;99.90;;;;;;5061593;28;20211;-80
2024/02/29 07:45:09;;;;;;;5.53;3.13;;;6.60;99.90;;;;;;5063296;28;20195;-79
2024/02/29 07:47:39;;;;;;;0.73;0.73;;;6.60;99.90;;;;;;5071284;28;20223;-77
2024/02/29 07:50:07;;;;;;;1.30;1.20;;;6.80;99.90;;;;;;5070281;28;20202;-80
2024/02/29 07:52:34;;;;;;;4.07;2.05;;;7.10;99.90;;;;;;5069984;28;20205;-79
2024/02/29 07:55:00;;;;;;;3.35;2.67;;;7.30;99.90;;;;;;5068309;28;20206;-78
2024/02/29 07:57:27;;;;;;;3.65;2.85;;;7.50;99.90;;;;;;5062189;28;20215;-78
2024/02/29 07:59:54;;;;;;;1.50;1.40;;;7.60;99.90;;;;;;5059112;28;20579;-78
2024/02/29 08:02:21;;;;;;;1.15;1.15;;;7.70;99.90;;;;;;5055511;28;20226;-79
2024/02/29 08:04:49;;;;;;;3.10;1.58;;;7.80;99.90;;;;;;5054890;28;20221;-78
2024/02/29 08:07:16;;;;;;;5.18;2.80;;;8.00;99.90;;;;;;5054711;28;20215;-79
2024/02/29 08:09:43;;;;;;;8.43;3.20;;;8.10;99.90;;;;;;5054649;28;20202;-79
2024/02/29 08:12:10;;;;;;;2.90;0.90;;;8.20;99.90;;;;;;5054425;28;20191;-79
2024/02/29 08:14:37;;;;;;;2.97;2.45;;;8.30;99.90;;;;;;5053740;28;20448;-79
2024/02/29 08:17:05;;;;;;;2.05;1.83;;;8.60;99.90;;;;;;5053062;28;20218;-79
2024/02/29 08:19:32;;;;;;;6.07;3.25;;;8.70;99.90;;;;;;5052627;28;20206;-79
2024/02/29 08:22:00;;;;;;;6.20;3.50;;;8.90;99.90;;;;;;5053419;28;20682;-79
2024/02/29 08:24:27;;;;;;;1.50;1.10;;;9.30;99.90;;;;;;5052747;28;20437;-79
2024/02/29 08:26:55;;;;;;;1.13;0.80;;;9.90;99.90;;;;;;5055640;28;20175;-78
2024/02/29 08:29:22;;;;;;;0.60;0.60;;;10.10;99.90;;;;;;5058216;28;20437;-79
2024/02/29 08:31:50;;;;;;;6.33;3.53;;;10.70;99.90;;;;;;5058291;28;20429;-79
2024/02/29 08:34:17;;;;;;;3.03;2.73;;;11.10;99.90;;;;;;5057008;28;20449;-78
2024/02/29 08:36:44;;;;;;;3.87;3.57;;;11.00;99.90;;;;;;5057496;28;20445;-79
2024/02/29 08:39:12;;;;;;;0.50;0.50;;;11.40;99.90;;;;;;5056659;28;20429;-79
2024/02/29 08:41:39;;;;;;;3.80;1.90;;;11.50;99.90;;;;;;5056367;28;20444;-79
2024/02/29 08:44:05;;;;;;;4.83;2.30;;;12.30;99.90;;;;;;5056389;28;20446;-79
2024/02/29 08:46:35;;;;;;;4.13;2.50;;;12.00;99.90;;;;;;5056757;28;20469;-80
2024/02/29 08:49:03;;;;;;;9.87;1.53;;;11.30;99.90;;;;;;5056198;28;20461;-81
2024/02/29 08:51:29;;;;;;;1.13;0.60;;;11.60;99.90;;;;;;5057944;28;20949;-79
2024/02/29 08:53:57;;;;;;;1.47;1.37;;;11.90;99.90;;;;;;5055556;28;20441;-79
2024/02/29 08:56:25;;;;;;;2.60;1.77;;;12.00;99.90;;;;;;5055360;28;20437;-80
2024/02/29 08:58:53;;;;;;;2.37;2.17;;;11.70;99.90;;;;;;5057210;28;20466;-80
2024/02/29 09:01:20;;;;;;;1.30;1.17;;;11.20;99.90;;;;;;5060668;28;20437;-79
2024/02/29 09:03:47;;;;;;;2.33;2.00;;;11.00;99.90;;;;;;5054792;28;20892;-78
2024/02/29 09:06:15;;;;;;;2.93;2.23;;;11.40;99.90;;;;;;5054697;28;20445;-79
2024/02/29 09:08:42;;;;;;;2.40;1.53;;;11.50;99.90;;;;;;5055385;28;20464;-79
2024/02/29 09:11:09;;;;;;;1.97;1.20;;;12.00;99.90;;;;;;5054463;28;20949;-77
2024/02/29 09:13:38;;;;;;;1.87;1.30;;;12.10;99.90;;;;;;5053687;28;20958;-77
2024/02/29 09:16:06;;;;;;;0.70;0.70;;;12.50;99.90;;;;;;5053707;28;20469;-76
2024/02/29 09:18:33;;;;;;;0.80;0.77;;;13.30;99.90;;;;;;5053106;28;20526;-77
2024/02/29 09:21:01;;;;;;;4.73;1.73;;;13.20;99.90;;;;;;5053836;28;20433;-78
2024/02/29 09:23:29;;;;;;;5.13;1.37;;;13.70;99.90;;;;;;5054728;28;21035;-78
2024/02/29 09:25:56;;;;;;;5.60;1.00;;;14.00;99.90;;;;;;5054250;28;20437;-79
2024/02/29 09:28:23;;;;;;;1.47;1.37;;;14.40;99.90;;;;;;5057038;28;20479;-80
2024/02/29 09:30:53;;;;;;;1.57;1.43;;;14.00;98.80;;;;;;5060172;28;20950;-78
2024/02/29 09:33:20;;;;;;;0.50;0.50;;;13.70;99.60;;;;;;5056511;28;20797;-79
2024/02/29 09:35:47;;;;;;;5.23;2.63;;;13.30;98.50;;;;;;5059912;28;20853;-81
2024/02/29 09:38:13;;;;;;;1.30;1.20;;;12.50;98.70;;;;;;5060472;28;20461;-80
2024/02/29 09:40:40;;;;;;;0.80;0.70;;;11.80;99.90;;;;;;5061389;28;20438;-80
2024/02/29 09:43:07;;;;;;;0.60;0.60;;;11.60;99.90;;;;;;5063393;28;20473;-79
2024/02/29 09:45:38;;;;;;;0.80;0.63;;;11.30;99.90;;;;;;5063897;28;20437;-80
2024/02/29 09:48:08;;;;;;;1.50;1.40;;;10.90;99.90;;;;;;5062365;28;20461;-79
2024/02/29 09:50:34;;;;;;;2.13;1.57;;;10.90;99.90;;;;;;5058329;28;20445;-78
2024/02/29 09:53:02;;;;;;;2.00;1.90;;;10.40;99.90;;;;;;5058772;28;20438;-78
2024/02/29 09:55:31;;;;;;;0.90;0.77;;;10.20;99.90;;;;;;5060110;28;20433;-81
2024/02/29 09:57:59;;;;;;;2.30;2.20;;;10.10;99.90;;;;;;5061966;28;20485;-81
2024/02/29 10:00:27;;;;;;;1.10;1.03;;;9.90;99.90;;;;;;5063143;28;20441;-81
2024/02/29 10:02:56;;;;;;;1.23;1.13;;;9.70;99.90;;;;;;5063015;28;20481;-83
2024/02/29 10:05:25;;;;;;;4.13;2.07;;;9.70;99.90;;;;;;5063863;28;20476;-81
2024/02/29 10:07:51;;;;;;;2.97;2.58;;;9.70;99.90;;;;;;5064582;28;20458;-81
2024/02/29 10:10:20;;;;;;;1.70;1.10;;;9.90;99.90;;;;;;5064081;28;20195;-82
2024/02/29 10:12:58;;;;;;;0.50;0.40;;;10.10;99.90;;;;;;5063968;28;20222;-81
2024/02/29 10:15:30;;;;;;;1.63;1.53;;;10.00;99.90;;;;;;5064006;28;20460;-80
2024/02/29 10:17:57;;;;;;;3.53;1.40;;;10.10;99.90;;;;;;5063471;28;20460;-81
2024/02/29 10:20:26;;;;;;;1.50;0.93;;;10.00;99.90;;;;;;5063766;28;20984;-80
2024/02/29 10:22:53;;;;;;;5.20;2.20;;;10.10;99.90;;;;;;5063139;28;20481;-81
2024/02/29 10:25:20;;;;;;;2.80;2.60;;;9.80;99.90;;;;;;5062870;28;20441;-80
2024/02/29 10:27:47;;;;;;;3.80;2.15;;;9.70;99.90;;;;;;5064287;28;20466;-81
2024/02/29 10:30:14;;;;;;;3.35;2.25;;;9.40;99.90;;;;;;5063746;28;20206;-80
2024/02/29 10:32:43;;;;;;;1.27;1.27;;;9.40;99.90;;;;;;5063345;28;20194;-80
2024/02/29 10:35:20;;;;;;;2.57;2.30;;;9.40;99.90;;;;;;5063786;28;20441;-81
2024/02/29 10:37:49;;;;;;;1.60;1.47;;;9.20;99.90;;;;;;5063804;28;20461;-82
2024/02/29 10:40:16;;;;;;;0.60;0.60;;;9.40;99.90;;;;;;5061992;28;20445;-82
2024/02/29 10:42:44;;;;;;;1.50;0.90;;;9.60;99.90;;;;;;5062601;28;20484;-80
2024/02/29 10:45:15;;;;;;;2.33;1.33;;;9.60;99.90;;;;;;5062932;28;20437;-81
2024/02/29 10:47:49;;;;;;;0.87;0.87;;;9.70;99.90;;;;;;5063277;28;20453;-81
2024/02/29 10:50:23;;;;;;;1.77;1.33;;;9.90;99.90;;;;;;5062318;28;20433;-82
2024/02/29 10:53:03;;;;;;;0.90;0.90;;;10.20;99.90;;;;;;5062971;28;20437;-81
2024/02/29 10:55:34;;;;;;;1.70;1.07;;;10.40;99.90;;;;;;5062563;28;20441;-81
2024/02/29 10:58:08;;;;;;;5.67;3.40;;;10.20;99.90;;;;;;5062665;28;20453;-81
2024/02/29 11:00:37;;;;;;;1.40;1.30;;;10.20;99.90;;;;;;5062822;28;20437;-82
2024/02/29 11:03:05;;;;;;;1.43;1.07;;;10.40;99.90;;;;;;5062525;28;20477;-80
2024/02/29 11:05:32;;;;;;;0.60;0.50;;;10.40;99.90;;;;;;5062096;28;20445;-80
2024/02/29 11:08:02;;;;;;;0.60;0.50;;;10.30;99.90;;;;;;5061336;28;20450;-80
2024/02/29 11:10:29;;;;;;;0.90;0.57;;;10.30;99.90;;;;;;5061505;28;20444;-80
2024/02/29 11:13:03;;;;;;;2.40;2.30;;;10.10;99.90;;;;;;5061514;28;20440;-81
2024/02/29 11:15:31;;;;;;;0.70;0.60;;;10.30;99.90;;;;;;5062069;28;20430;-80
2024/02/29 11:17:59;;;;;;;3.80;0.87;;;10.20;99.90;;;;;;5062175;28;21095;-80
2024/02/29 11:20:26;;;;;;;0.50;0.50;;;10.10;99.90;;;;;;5062721;28;20484;-80
2024/02/29 11:23:04;;;;;;;2.93;1.63;;;10.20;99.90;;;;;;5061321;28;20466;-80
2024/02/29 11:25:32;;;;;;;2.17;1.97;;;10.10;99.90;;;;;;5061251;28;20430;-80
2024/02/29 11:28:04;;;;;;;3.10;1.90;;;10.10;99.90;;;;;;5061859;28;20461;-81
2024/02/29 11:30:32;;;;;;;10.10;2.33;;;10.20;99.90;;;;;;5061536;28;20473;-81
2024/02/29 11:33:09;;;;;;;2.77;1.90;;;10.10;99.90;;;;;;5061450;28;20503;-80
2024/02/29 11:35:36;;;;;;;1.43;0.60;;;10.20;99.90;;;;;;5061567;28;20801;-80
2024/02/29 11:38:08;;;;;;;1.53;1.43;;;10.20;99.90;;;;;;5061424;28;20515;-80
2024/02/29 11:40:36;;;;;;;2.60;2.20;;;10.10;99.90;;;;;;5061248;28;20442;-80
2024/02/29 11:43:07;;;;;;;1.93;1.30;;;9.90;99.90;;;;;;5061306;28;20474;-81
2024/02/29 11:45:35;;;;;;;0.70;0.60;;;9.90;99.90;;;;;;5060940;28;20437;-78
2024/02/29 11:48:02;;;;;;;4.80;1.30;;;9.90;99.90;;;;;;5061390;28;20225;-80
2024/02/29 11:50:29;;;;;;;2.67;2.47;;;10.00;99.90;;;;;;5061075;28;20524;-80
2024/02/29 11:53:00;;;;;;;3.30;1.23;;;10.00;99.90;;;;;;5061209;28;20191;-80
2024/02/29 11:55:30;;;;;;;1.60;0.93;;;10.10;99.90;;;;;;5060577;28;20503;-80
2024/02/29 11:57:58;;;;;;;0.50;0.40;;;10.10;99.90;;;;;;5061426;28;20548;-79
2024/02/29 12:00:27;;;;;;;3.57;2.03;;;10.20;99.90;;;;;;5062866;28;20437;-80
2024/02/29 12:02:54;;;;;;;3.57;1.87;;;10.10;99.90;;;;;;5060960;28;20477;-79
2024/02/29 12:05:21;;;;;;;1.00;0.60;;;10.10;99.90;;;;;;5061383;28;20441;-80
2024/02/29 12:07:48;;;;;;;1.80;0.83;;;10.10;99.90;;;;;;5060117;28;20462;-80
2024/02/29 12:10:16;;;;;;;3.87;2.47;;;10.30;99.90;;;;;;5061140;28;20434;-80
2024/02/29 12:12:44;;;;;;;3.70;2.10;;;10.30;99.90;;;;;;5060629;28;20449;-80
2024/02/29 12:15:12;;;;;;;4.10;3.80;;;10.30;99.90;;;;;;5062004;28;20441;-80
2024/02/29 12:17:39;;;;;;;4.70;2.40;;;10.40;99.90;;;;;;5060294;28;20461;-80
2024/02/29 12:20:09;;;;;;;2.20;1.93;;;10.60;99.90;;;;;;5058331;28;20491;-80
2024/02/29 12:22:36;;;;;;;1.83;1.73;;;10.80;99.90;;;;;;5058565;28;20466;-79
2024/02/29 12:25:12;;;;;;;2.10;1.63;;;10.90;99.90;;;;;;5059040;28;20481;-79
2024/02/29 12:27:41;;;;;;;7.65;2.15;;;10.70;99.90;;;;;;5058584;28;20241;-80
2024/02/29 12:30:12;;;;;;;2.00;1.17;;;10.70;99.90;;;;;;5059463;28;20191;-80
2024/02/29 12:32:39;;;;;;;2.73;1.30;;;10.80;99.90;;;;;;5057425;28;20979;-80
2024/02/29 12:35:08;;;;;;;4.33;1.63;;;10.80;99.90;;;;;;5058376;28;20437;-80
2024/02/29 12:37:40;;;;;;;2.40;2.20;;;11.00;99.90;;;;;;5058824;28;20454;-80
2024/02/29 12:40:10;;;;;;;0.60;0.60;;;11.00;99.90;;;;;;5058802;28;20473;-81
2024/02/29 12:42:37;;;;;;;0.60;0.60;;;11.20;99.90;;;;;;5059613;28;20445;-79
2024/02/29 12:45:08;;;;;;;3.57;1.50;;;11.20;99.90;;;;;;5060160;28;20477;-79
2024/02/29 12:47:37;;;;;;;2.13;1.52;;;11.20;99.90;;;;;;5056887;28;20549;-79
2024/02/29 12:50:04;;;;;;;1.13;1.13;;;11.20;99.90;;;;;;5058556;28;20199;-79
2024/02/29 12:52:31;;;;;;;0.70;0.60;;;11.20;99.90;;;;;;5058491;28;20429;-80
2024/02/29 12:54:58;;;;;;;4.20;1.43;;;11.20;99.90;;;;;;5058233;28;20434;-80